sensor_id;sensor_type;location;lat;lon;timestamp;temperature;humidity
67817;DHT22;54614;47.576;7.524;2023-04-15T00:01:26;23.80;47.50
67817;DHT22;54614;47.576;7.524;2023-04-15T00:03:53;23.80;47.50
67817;DHT22;54614;47.576;7.524;2023-04-15T00:06:20;23.80;47.50
67817;DHT22;54614;47.576;7.524;2023-04-15T00:08:47;23.90;47.60
67817;DHT22;54614;47.576;7.524;2023-04-15T00:11:15;23.80;47.50
67817;DHT22;54614;47.576;7.524;2023-04-15T00:13:42;23.80;47.50
67817;DHT22;54614;47.576;7.524;2023-04-15T00:16:09;23.90;47.50
67817;DHT22;54614;47.576;7.524;2023-04-15T00:18:36;23.80;47.50
67817;DHT22;54614;47.576;7.524;2023-04-15T00:21:02;23.80;47.50
67817;DHT22;54614;47.576;7.524;2023-04-15T00:23:29;23.80;47.50
67817;DHT22;54614;47.576;7.524;2023-04-15T00:25:55;23.80;47.50
67817;DHT22;54614;47.576;7.524;2023-04-15T00:28:21;23.80;47.40
67817;DHT22;54614;47.576;7.524;2023-04-15T00:30:47;23.80;47.50
67817;DHT22;54614;47.576;7.524;2023-04-15T00:33:14;23.80;47.50
67817;DHT22;54614;47.576;7.524;2023-04-15T00:35:41;23.80;47.60
67817;DHT22;54614;47.576;7.524;2023-04-15T00:38:07;23.80;48.00
67817;DHT22;54614;47.576;7.524;2023-04-15T00:40:33;23.80;47.40
67817;DHT22;54614;47.576;7.524;2023-04-15T00:43:00;23.80;47.50
67817;DHT22;54614;47.576;7.524;2023-04-15T00:45:25;23.80;47.40
67817;DHT22;54614;47.576;7.524;2023-04-15T00:47:54;23.80;47.50
67817;DHT22;54614;47.576;7.524;2023-04-15T00:50:21;23.80;47.40
67817;DHT22;54614;47.576;7.524;2023-04-15T00:52:47;23.80;47.40
67817;DHT22;54614;47.576;7.524;2023-04-15T00:55:14;23.80;47.40
67817;DHT22;54614;47.576;7.524;2023-04-15T00:57:41;23.80;47.40
67817;DHT22;54614;47.576;7.524;2023-04-15T01:00:07;23.80;47.40
67817;DHT22;54614;47.576;7.524;2023-04-15T01:02:35;23.80;47.40
67817;DHT22;54614;47.576;7.524;2023-04-15T01:05:02;23.80;47.40
67817;DHT22;54614;47.576;7.524;2023-04-15T01:07:29;23.80;47.40
67817;DHT22;54614;47.576;7.524;2023-04-15T01:09:55;23.80;47.40
67817;DHT22;54614;47.576;7.524;2023-04-15T01:12:23;23.70;47.40
67817;DHT22;54614;47.576;7.524;2023-04-15T01:14:53;23.80;47.40
67817;DHT22;54614;47.576;7.524;2023-04-15T01:17:20;23.70;47.40
67817;DHT22;54614;47.576;7.524;2023-04-15T01:19:46;23.70;47.40
67817;DHT22;54614;47.576;7.524;2023-04-15T01:22:12;23.70;47.40
67817;DHT22;54614;47.576;7.524;2023-04-15T01:24:38;23.70;47.40
67817;DHT22;54614;47.576;7.524;2023-04-15T01:27:04;23.70;47.40
67817;DHT22;54614;47.576;7.524;2023-04-15T01:29:31;23.70;47.40
67817;DHT22;54614;47.576;7.524;2023-04-15T01:32:00;23.80;47.50
67817;DHT22;54614;47.576;7.524;2023-04-15T01:34:26;23.70;47.40
67817;DHT22;54614;47.576;7.524;2023-04-15T01:36:52;23.70;47.40
67817;DHT22;54614;47.576;7.524;2023-04-15T01:39:18;23.70;47.40
67817;DHT22;54614;47.576;7.524;2023-04-15T01:41:43;23.70;47.40
67817;DHT22;54614;47.576;7.524;2023-04-15T01:44:09;23.70;47.40
67817;DHT22;54614;47.576;7.524;2023-04-15T01:46:35;23.70;47.40
67817;DHT22;54614;47.576;7.524;2023-04-15T01:49:01;23.70;47.40
67817;DHT22;54614;47.576;7.524;2023-04-15T01:51:27;23.70;47.40
67817;DHT22;54614;47.576;7.524;2023-04-15T01:53:53;23.70;47.60
67817;DHT22;54614;47.576;7.524;2023-04-15T01:56:21;23.70;47.40
67817;DHT22;54614;47.576;7.524;2023-04-15T01:58:49;23.70;47.40
67817;DHT22;54614;47.576;7.524;2023-04-15T02:01:14;23.70;47.40
67817;DHT22;54614;47.576;7.524;2023-04-15T02:03:41;23.70;47.40
67817;DHT22;54614;47.576;7.524;2023-04-15T02:06:07;23.70;47.40
67817;DHT22;54614;47.576;7.524;2023-04-15T02:08:33;23.70;47.40
67817;DHT22;54614;47.576;7.524;2023-04-15T02:10:59;23.70;47.50
67817;DHT22;54614;47.576;7.524;2023-04-15T02:13:25;23.70;47.40
67817;DHT22;54614;47.576;7.524;2023-04-15T02:15:51;23.70;47.40
67817;DHT22;54614;47.576;7.524;2023-04-15T02:18:17;23.70;47.40
67817;DHT22;54614;47.576;7.524;2023-04-15T02:20:43;23.70;47.40
67817;DHT22;54614;47.576;7.524;2023-04-15T02:23:09;23.70;47.40
67817;DHT22;54614;47.576;7.524;2023-04-15T02:25:36;23.70;47.50
67817;DHT22;54614;47.576;7.524;2023-04-15T02:28:04;23.70;47.50
67817;DHT22;54614;47.576;7.524;2023-04-15T02:30:31;23.70;47.40
67817;DHT22;54614;47.576;7.524;2023-04-15T02:32:57;23.70;47.50
67817;DHT22;54614;47.576;7.524;2023-04-15T02:35:24;23.70;47.40
67817;DHT22;54614;47.576;7.524;2023-04-15T02:37:50;23.70;47.40
67817;DHT22;54614;47.576;7.524;2023-04-15T02:40:17;23.60;47.40
67817;DHT22;54614;47.576;7.524;2023-04-15T02:42:43;23.70;47.40
67817;DHT22;54614;47.576;7.524;2023-04-15T02:45:10;23.60;47.40
67817;DHT22;54614;47.576;7.524;2023-04-15T02:47:38;23.60;47.50
67817;DHT22;54614;47.576;7.524;2023-04-15T02:50:10;23.60;47.40
67817;DHT22;54614;47.576;7.524;2023-04-15T02:52:39;23.60;48.00
67817;DHT22;54614;47.576;7.524;2023-04-15T02:55:06;23.70;47.50
67817;DHT22;54614;47.576;7.524;2023-04-15T02:57:32;23.60;47.50
67817;DHT22;54614;47.576;7.524;2023-04-15T02:59:59;23.60;47.40
67817;DHT22;54614;47.576;7.524;2023-04-15T03:02:25;23.60;47.50
67817;DHT22;54614;47.576;7.524;2023-04-15T03:04:50;23.60;47.50
67817;DHT22;54614;47.576;7.524;2023-04-15T03:07:17;23.60;47.50
67817;DHT22;54614;47.576;7.524;2023-04-15T03:09:43;23.60;47.50
67817;DHT22;54614;47.576;7.524;2023-04-15T03:12:10;23.60;47.50
67817;DHT22;54614;47.576;7.524;2023-04-15T03:14:35;23.60;47.50
67817;DHT22;54614;47.576;7.524;2023-04-15T03:17:01;23.60;47.50
67817;DHT22;54614;47.576;7.524;2023-04-15T03:19:27;23.60;47.50
67817;DHT22;54614;47.576;7.524;2023-04-15T03:21:53;23.60;47.50
67817;DHT22;54614;47.576;7.524;2023-04-15T03:24:19;23.60;48.10
67817;DHT22;54614;47.576;7.524;2023-04-15T03:26:45;23.60;47.50
67817;DHT22;54614;47.576;7.524;2023-04-15T03:29:11;23.60;47.50
67817;DHT22;54614;47.576;7.524;2023-04-15T03:31:37;23.60;47.60
67817;DHT22;54614;47.576;7.524;2023-04-15T03:34:02;23.60;47.60
67817;DHT22;54614;47.576;7.524;2023-04-15T03:36:29;23.60;47.50
67817;DHT22;54614;47.576;7.524;2023-04-15T03:38:58;23.60;47.50
67817;DHT22;54614;47.576;7.524;2023-04-15T03:41:26;23.60;47.50
67817;DHT22;54614;47.576;7.524;2023-04-15T03:43:53;23.60;47.50
67817;DHT22;54614;47.576;7.524;2023-04-15T03:46:19;23.60;47.50
67817;DHT22;54614;47.576;7.524;2023-04-15T03:48:46;23.60;47.50
67817;DHT22;54614;47.576;7.524;2023-04-15T03:51:12;23.60;47.50
67817;DHT22;54614;47.576;7.524;2023-04-15T03:53:37;23.60;47.50
67817;DHT22;54614;47.576;7.524;2023-04-15T03:56:03;23.60;47.50
67817;DHT22;54614;47.576;7.524;2023-04-15T03:58:30;23.60;47.50
67817;DHT22;54614;47.576;7.524;2023-04-15T04:00:55;23.60;47.50
67817;DHT22;54614;47.576;7.524;2023-04-15T04:03:21;23.60;47.50
67817;DHT22;54614;47.576;7.524;2023-04-15T04:05:47;23.60;47.50
67817;DHT22;54614;47.576;7.524;2023-04-15T04:08:13;23.60;47.50
67817;DHT22;54614;47.576;7.524;2023-04-15T04:10:40;23.60;47.50
67817;DHT22;54614;47.576;7.524;2023-04-15T04:13:07;23.60;47.60
67817;DHT22;54614;47.576;7.524;2023-04-15T04:15:33;23.60;47.50
67817;DHT22;54614;47.576;7.524;2023-04-15T04:17:58;23.50;47.50
67817;DHT22;54614;47.576;7.524;2023-04-15T04:20:25;23.60;47.60
67817;DHT22;54614;47.576;7.524;2023-04-15T04:22:50;23.50;47.60
67817;DHT22;54614;47.576;7.524;2023-04-15T04:25:16;23.60;47.60
67817;DHT22;54614;47.576;7.524;2023-04-15T04:27:42;23.50;47.60
67817;DHT22;54614;47.576;7.524;2023-04-15T04:30:09;23.50;47.60
67817;DHT22;54614;47.576;7.524;2023-04-15T04:32:36;23.50;47.60
67817;DHT22;54614;47.576;7.524;2023-04-15T04:35:03;23.50;47.60
67817;DHT22;54614;47.576;7.524;2023-04-15T04:37:29;23.60;47.60
67817;DHT22;54614;47.576;7.524;2023-04-15T04:39:55;23.60;47.60
67817;DHT22;54614;47.576;7.524;2023-04-15T04:42:21;23.50;47.70
67817;DHT22;54614;47.576;7.524;2023-04-15T04:44:47;23.50;47.70
67817;DHT22;54614;47.576;7.524;2023-04-15T04:47:13;23.50;47.70
67817;DHT22;54614;47.576;7.524;2023-04-15T04:49:39;23.50;47.70
67817;DHT22;54614;47.576;7.524;2023-04-15T04:52:05;23.50;47.70
67817;DHT22;54614;47.576;7.524;2023-04-15T04:54:31;23.50;47.70
67817;DHT22;54614;47.576;7.524;2023-04-15T04:56:57;23.50;47.70
67817;DHT22;54614;47.576;7.524;2023-04-15T04:59:23;23.50;47.80
67817;DHT22;54614;47.576;7.524;2023-04-15T05:01:50;23.50;47.70
67817;DHT22;54614;47.576;7.524;2023-04-15T05:04:16;23.50;47.80
67817;DHT22;54614;47.576;7.524;2023-04-15T05:06:42;23.50;47.70
67817;DHT22;54614;47.576;7.524;2023-04-15T05:09:08;23.50;47.80
67817;DHT22;54614;47.576;7.524;2023-04-15T05:11:33;23.50;47.70
67817;DHT22;54614;47.576;7.524;2023-04-15T05:13:59;23.50;47.70
67817;DHT22;54614;47.576;7.524;2023-04-15T05:16:26;23.50;47.80
67817;DHT22;54614;47.576;7.524;2023-04-15T05:18:52;23.50;47.80
67817;DHT22;54614;47.576;7.524;2023-04-15T05:21:19;23.50;47.80
67817;DHT22;54614;47.576;7.524;2023-04-15T05:23:45;23.50;47.90
67817;DHT22;54614;47.576;7.524;2023-04-15T05:26:11;23.50;48.00
67817;DHT22;54614;47.576;7.524;2023-04-15T05:28:37;23.50;47.90
67817;DHT22;54614;47.576;7.524;2023-04-15T05:31:03;23.50;47.90
67817;DHT22;54614;47.576;7.524;2023-04-15T05:33:29;23.50;48.10
67817;DHT22;54614;47.576;7.524;2023-04-15T05:35:55;23.50;47.90
67817;DHT22;54614;47.576;7.524;2023-04-15T05:38:20;23.50;47.90
67817;DHT22;54614;47.576;7.524;2023-04-15T05:40:46;23.50;47.90
67817;DHT22;54614;47.576;7.524;2023-04-15T05:43:12;23.50;48.20
67817;DHT22;54614;47.576;7.524;2023-04-15T05:45:38;23.50;48.00
67817;DHT22;54614;47.576;7.524;2023-04-15T05:48:04;23.50;48.00
67817;DHT22;54614;47.576;7.524;2023-04-15T05:50:30;23.50;48.10
67817;DHT22;54614;47.576;7.524;2023-04-15T05:52:56;23.50;48.00
67817;DHT22;54614;47.576;7.524;2023-04-15T05:55:22;23.50;48.50
67817;DHT22;54614;47.576;7.524;2023-04-15T05:57:48;23.50;48.10
67817;DHT22;54614;47.576;7.524;2023-04-15T06:00:14;23.50;48.10
67817;DHT22;54614;47.576;7.524;2023-04-15T06:02:40;23.50;48.10
67817;DHT22;54614;47.576;7.524;2023-04-15T06:05:07;23.50;48.10
67817;DHT22;54614;47.576;7.524;2023-04-15T06:07:37;23.50;48.20
67817;DHT22;54614;47.576;7.524;2023-04-15T06:10:04;23.40;48.10
67817;DHT22;54614;47.576;7.524;2023-04-15T06:12:30;23.40;48.00
67817;DHT22;54614;47.576;7.524;2023-04-15T06:14:56;23.40;48.00
67817;DHT22;54614;47.576;7.524;2023-04-15T06:17:22;23.40;48.00
67817;DHT22;54614;47.576;7.524;2023-04-15T06:19:48;23.50;48.00
67817;DHT22;54614;47.576;7.524;2023-04-15T06:22:14;23.40;48.50
67817;DHT22;54614;47.576;7.524;2023-04-15T06:24:41;23.30;49.20
67817;DHT22;54614;47.576;7.524;2023-04-15T06:27:07;23.20;49.30
67817;DHT22;54614;47.576;7.524;2023-04-15T06:29:32;23.10;49.60
67817;DHT22;54614;47.576;7.524;2023-04-15T06:31:58;23.10;49.70
67817;DHT22;54614;47.576;7.524;2023-04-15T06:34:24;23.00;49.90
67817;DHT22;54614;47.576;7.524;2023-04-15T06:36:50;23.00;50.00
67817;DHT22;54614;47.576;7.524;2023-04-15T06:39:16;23.10;49.60
67817;DHT22;54614;47.576;7.524;2023-04-15T06:41:42;23.30;49.30
67817;DHT22;54614;47.576;7.524;2023-04-15T06:44:07;23.30;49.00
67817;DHT22;54614;47.576;7.524;2023-04-15T06:46:33;23.40;48.90
67817;DHT22;54614;47.576;7.524;2023-04-15T06:48:59;23.40;48.60
67817;DHT22;54614;47.576;7.524;2023-04-15T06:51:25;23.50;48.50
67817;DHT22;54614;47.576;7.524;2023-04-15T06:53:51;23.50;48.60
67817;DHT22;54614;47.576;7.524;2023-04-15T06:56:17;23.50;48.60
67817;DHT22;54614;47.576;7.524;2023-04-15T06:58:43;23.50;48.40
67817;DHT22;54614;47.576;7.524;2023-04-15T07:01:08;23.50;48.30
67817;DHT22;54614;47.576;7.524;2023-04-15T07:03:34;23.50;48.20
67817;DHT22;54614;47.576;7.524;2023-04-15T07:06:00;23.50;49.00
67817;DHT22;54614;47.576;7.524;2023-04-15T07:08:31;23.50;48.40
67817;DHT22;54614;47.576;7.524;2023-04-15T07:10:58;23.50;48.40
67817;DHT22;54614;47.576;7.524;2023-04-15T07:13:25;23.50;48.30
67817;DHT22;54614;47.576;7.524;2023-04-15T07:15:51;23.50;48.40
67817;DHT22;54614;47.576;7.524;2023-04-15T07:18:17;23.50;48.40
67817;DHT22;54614;47.576;7.524;2023-04-15T07:20:43;23.50;48.20
67817;DHT22;54614;47.576;7.524;2023-04-15T07:23:08;23.50;48.20
67817;DHT22;54614;47.576;7.524;2023-04-15T07:25:34;23.50;48.20
67817;DHT22;54614;47.576;7.524;2023-04-15T07:28:00;23.50;48.00
67817;DHT22;54614;47.576;7.524;2023-04-15T07:30:26;23.50;48.20
67817;DHT22;54614;47.576;7.524;2023-04-15T07:32:53;23.40;48.00
67817;DHT22;54614;47.576;7.524;2023-04-15T07:37:47;23.50;48.50
67817;DHT22;54614;47.576;7.524;2023-04-15T07:40:13;23.40;49.20
67817;DHT22;54614;47.576;7.524;2023-04-15T07:42:40;23.40;48.70
67817;DHT22;54614;47.576;7.524;2023-04-15T07:45:07;23.10;47.30
67817;DHT22;54614;47.576;7.524;2023-04-15T07:47:33;22.80;47.60
67817;DHT22;54614;47.576;7.524;2023-04-15T07:49:59;22.70;48.00
67817;DHT22;54614;47.576;7.524;2023-04-15T07:52:28;22.60;48.00
67817;DHT22;54614;47.576;7.524;2023-04-15T07:54:54;22.70;48.30
67817;DHT22;54614;47.576;7.524;2023-04-15T07:57:20;22.80;48.40
67817;DHT22;54614;47.576;7.524;2023-04-15T07:59:45;22.80;48.80
67817;DHT22;54614;47.576;7.524;2023-04-15T08:02:11;22.90;51.50
67817;DHT22;54614;47.576;7.524;2023-04-15T08:04:37;23.00;54.30
67817;DHT22;54614;47.576;7.524;2023-04-15T08:07:03;23.00;55.30
67817;DHT22;54614;47.576;7.524;2023-04-15T08:09:29;23.00;53.80
67817;DHT22;54614;47.576;7.524;2023-04-15T08:11:55;23.00;52.70
67817;DHT22;54614;47.576;7.524;2023-04-15T08:14:23;23.00;51.90
67817;DHT22;54614;47.576;7.524;2023-04-15T08:16:48;23.00;51.90
67817;DHT22;54614;47.576;7.524;2023-04-15T08:19:15;22.90;51.80
67817;DHT22;54614;47.576;7.524;2023-04-15T08:21:41;23.00;51.50
67817;DHT22;54614;47.576;7.524;2023-04-15T08:24:07;22.90;51.10
67817;DHT22;54614;47.576;7.524;2023-04-15T08:26:33;23.00;51.00
67817;DHT22;54614;47.576;7.524;2023-04-15T08:28:59;22.90;50.40
67817;DHT22;54614;47.576;7.524;2023-04-15T08:31:25;23.00;50.20
67817;DHT22;54614;47.576;7.524;2023-04-15T08:33:55;23.00;50.10
67817;DHT22;54614;47.576;7.524;2023-04-15T08:36:22;23.00;50.00
67817;DHT22;54614;47.576;7.524;2023-04-15T08:38:47;23.00;50.50
67817;DHT22;54614;47.576;7.524;2023-04-15T08:44:03;23.10;49.60
67817;DHT22;54614;47.576;7.524;2023-04-15T08:46:31;23.00;49.30
67817;DHT22;54614;47.576;7.524;2023-04-15T08:49:04;23.10;49.30
67817;DHT22;54614;47.576;7.524;2023-04-15T08:51:35;23.10;49.30
67817;DHT22;54614;47.576;7.524;2023-04-15T08:54:03;23.10;49.30
67817;DHT22;54614;47.576;7.524;2023-04-15T08:56:30;23.10;49.30
67817;DHT22;54614;47.576;7.524;2023-04-15T08:58:58;23.10;49.20
67817;DHT22;54614;47.576;7.524;2023-04-15T09:01:25;23.10;49.20
67817;DHT22;54614;47.576;7.524;2023-04-15T09:03:52;23.20;49.20
67817;DHT22;54614;47.576;7.524;2023-04-15T09:06:23;23.20;49.00
67817;DHT22;54614;47.576;7.524;2023-04-15T09:08:51;23.20;48.90
67817;DHT22;54614;47.576;7.524;2023-04-15T09:11:17;23.20;48.90
67817;DHT22;54614;47.576;7.524;2023-04-15T09:13:44;23.20;49.00
67817;DHT22;54614;47.576;7.524;2023-04-15T09:16:10;23.20;48.80
67817;DHT22;54614;47.576;7.524;2023-04-15T09:18:38;23.20;48.80
67817;DHT22;54614;47.576;7.524;2023-04-15T09:21:05;23.30;48.80
67817;DHT22;54614;47.576;7.524;2023-04-15T09:23:40;23.30;48.60
67817;DHT22;54614;47.576;7.524;2023-04-15T09:26:18;23.40;49.30
67817;DHT22;54614;47.576;7.524;2023-04-15T09:28:43;23.40;49.00
67817;DHT22;54614;47.576;7.524;2023-04-15T09:31:10;23.30;49.10
67817;DHT22;54614;47.576;7.524;2023-04-15T09:33:53;23.30;49.30
67817;DHT22;54614;47.576;7.524;2023-04-15T09:36:21;23.30;49.40
67817;DHT22;54614;47.576;7.524;2023-04-15T09:38:57;23.30;50.00
67817;DHT22;54614;47.576;7.524;2023-04-15T09:41:25;23.30;49.70
67817;DHT22;54614;47.576;7.524;2023-04-15T09:43:52;23.20;49.80
67817;DHT22;54614;47.576;7.524;2023-04-15T09:46:18;23.20;49.80
67817;DHT22;54614;47.576;7.524;2023-04-15T09:48:44;23.20;49.80
67817;DHT22;54614;47.576;7.524;2023-04-15T09:51:10;23.30;49.90
67817;DHT22;54614;47.576;7.524;2023-04-15T09:53:36;23.30;50.00
67817;DHT22;54614;47.576;7.524;2023-04-15T09:56:03;23.30;50.00
67817;DHT22;54614;47.576;7.524;2023-04-15T09:58:33;23.30;50.20
67817;DHT22;54614;47.576;7.524;2023-04-15T10:01:04;23.30;50.20
67817;DHT22;54614;47.576;7.524;2023-04-15T10:03:34;23.40;50.20
67817;DHT22;54614;47.576;7.524;2023-04-15T10:06:03;23.50;50.10
67817;DHT22;54614;47.576;7.524;2023-04-15T10:08:33;23.50;50.10
67817;DHT22;54614;47.576;7.524;2023-04-15T10:11:02;23.50;50.10
67817;DHT22;54614;47.576;7.524;2023-04-15T10:13:30;23.50;50.00
67817;DHT22;54614;47.576;7.524;2023-04-15T10:16:07;23.40;50.00
67817;DHT22;54614;47.576;7.524;2023-04-15T10:18:39;23.40;49.90
67817;DHT22;54614;47.576;7.524;2023-04-15T10:21:08;23.40;49.80
67817;DHT22;54614;47.576;7.524;2023-04-15T10:23:34;23.40;49.80
67817;DHT22;54614;47.576;7.524;2023-04-15T10:26:01;23.40;49.80
67817;DHT22;54614;47.576;7.524;2023-04-15T10:28:29;23.40;49.30
67817;DHT22;54614;47.576;7.524;2023-04-15T10:30:55;23.50;49.10
67817;DHT22;54614;47.576;7.524;2023-04-15T10:33:24;23.60;48.90
67817;DHT22;54614;47.576;7.524;2023-04-15T10:35:52;23.60;48.90
67817;DHT22;54614;47.576;7.524;2023-04-15T10:38:46;23.60;48.90
67817;DHT22;54614;47.576;7.524;2023-04-15T10:41:12;23.60;48.80
67817;DHT22;54614;47.576;7.524;2023-04-15T10:43:51;23.60;48.80
67817;DHT22;54614;47.576;7.524;2023-04-15T10:46:43;23.60;48.80
67817;DHT22;54614;47.576;7.524;2023-04-15T10:49:23;23.60;48.80
67817;DHT22;54614;47.576;7.524;2023-04-15T10:51:51;23.60;48.80
67817;DHT22;54614;47.576;7.524;2023-04-15T10:56:52;23.50;48.80
67817;DHT22;54614;47.576;7.524;2023-04-15T10:59:37;23.60;48.90
67817;DHT22;54614;47.576;7.524;2023-04-15T11:02:52;23.60;48.90
67817;DHT22;54614;47.576;7.524;2023-04-15T11:08:07;23.50;48.80
67817;DHT22;54614;47.576;7.524;2023-04-15T11:13:06;23.50;48.80
67817;DHT22;54614;47.576;7.524;2023-04-15T11:15:44;23.50;48.80
67817;DHT22;54614;47.576;7.524;2023-04-15T11:18:13;23.50;48.80
67817;DHT22;54614;47.576;7.524;2023-04-15T11:20:45;23.50;48.80
67817;DHT22;54614;47.576;7.524;2023-04-15T11:23:14;23.50;48.80
67817;DHT22;54614;47.576;7.524;2023-04-15T11:25:41;23.50;48.80
67817;DHT22;54614;47.576;7.524;2023-04-15T11:28:07;23.50;48.80
67817;DHT22;54614;47.576;7.524;2023-04-15T11:30:34;23.50;48.80
67817;DHT22;54614;47.576;7.524;2023-04-15T11:33:09;23.50;48.80
67817;DHT22;54614;47.576;7.524;2023-04-15T11:35:40;23.50;48.80
67817;DHT22;54614;47.576;7.524;2023-04-15T11:38:13;23.40;49.00
67817;DHT22;54614;47.576;7.524;2023-04-15T11:40:41;23.40;49.20
67817;DHT22;54614;47.576;7.524;2023-04-15T11:43:16;23.50;49.40
67817;DHT22;54614;47.576;7.524;2023-04-15T11:45:55;23.50;50.20
67817;DHT22;54614;47.576;7.524;2023-04-15T11:48:33;23.50;49.90
67817;DHT22;54614;47.576;7.524;2023-04-15T11:51:02;23.50;49.40
67817;DHT22;54614;47.576;7.524;2023-04-15T11:56:17;23.50;50.10
67817;DHT22;54614;47.576;7.524;2023-04-15T11:58:45;23.50;49.60
67817;DHT22;54614;47.576;7.524;2023-04-15T12:01:12;23.50;50.10
67817;DHT22;54614;47.576;7.524;2023-04-15T12:03:47;23.50;50.30
67817;DHT22;54614;47.576;7.524;2023-04-15T12:06:33;23.50;50.20
67817;DHT22;54614;47.576;7.524;2023-04-15T12:09:06;23.50;50.00
67817;DHT22;54614;47.576;7.524;2023-04-15T12:14:08;23.50;50.00
67817;DHT22;54614;47.576;7.524;2023-04-15T12:16:45;23.50;50.10
67817;DHT22;54614;47.576;7.524;2023-04-15T12:22:04;23.50;50.30
67817;DHT22;54614;47.576;7.524;2023-04-15T12:24:35;23.50;50.20
67817;DHT22;54614;47.576;7.524;2023-04-15T12:27:03;23.40;50.50
67817;DHT22;54614;47.576;7.524;2023-04-15T12:29:35;23.50;50.30
67817;DHT22;54614;47.576;7.524;2023-04-15T12:32:06;23.50;50.20
67817;DHT22;54614;47.576;7.524;2023-04-15T12:34:37;23.50;50.10
67817;DHT22;54614;47.576;7.524;2023-04-15T12:37:05;23.50;50.00
67817;DHT22;54614;47.576;7.524;2023-04-15T12:39:37;23.60;50.30
67817;DHT22;54614;47.576;7.524;2023-04-15T12:42:05;23.60;50.00
67817;DHT22;54614;47.576;7.524;2023-04-15T12:44:33;23.60;49.90
67817;DHT22;54614;47.576;7.524;2023-04-15T12:47:00;23.60;49.80
67817;DHT22;54614;47.576;7.524;2023-04-15T12:49:26;23.60;50.00
67817;DHT22;54614;47.576;7.524;2023-04-15T12:51:55;23.70;50.10
67817;DHT22;54614;47.576;7.524;2023-04-15T12:54:22;23.60;49.80
67817;DHT22;54614;47.576;7.524;2023-04-15T12:56:49;23.70;49.80
67817;DHT22;54614;47.576;7.524;2023-04-15T12:59:16;23.70;49.80
67817;DHT22;54614;47.576;7.524;2023-04-15T13:01:43;23.70;49.80
67817;DHT22;54614;47.576;7.524;2023-04-15T13:04:10;23.70;49.90
67817;DHT22;54614;47.576;7.524;2023-04-15T13:06:36;23.70;49.80
67817;DHT22;54614;47.576;7.524;2023-04-15T13:09:03;23.70;49.80
67817;DHT22;54614;47.576;7.524;2023-04-15T13:11:30;23.70;49.70
67817;DHT22;54614;47.576;7.524;2023-04-15T13:13:59;23.80;49.70
67817;DHT22;54614;47.576;7.524;2023-04-15T13:16:25;23.80;49.70
67817;DHT22;54614;47.576;7.524;2023-04-15T13:18:51;23.80;49.70
67817;DHT22;54614;47.576;7.524;2023-04-15T13:21:18;23.70;50.00
67817;DHT22;54614;47.576;7.524;2023-04-15T13:23:44;23.70;50.20
67817;DHT22;54614;47.576;7.524;2023-04-15T13:26:11;23.80;49.90
67817;DHT22;54614;47.576;7.524;2023-04-15T13:28:37;23.80;49.80
67817;DHT22;54614;47.576;7.524;2023-04-15T13:31:04;23.80;49.80
67817;DHT22;54614;47.576;7.524;2023-04-15T13:33:30;23.80;49.70
67817;DHT22;54614;47.576;7.524;2023-04-15T13:35:56;23.80;49.60
67817;DHT22;54614;47.576;7.524;2023-04-15T13:38:23;23.80;49.60
67817;DHT22;54614;47.576;7.524;2023-04-15T13:40:50;23.80;49.70
67817;DHT22;54614;47.576;7.524;2023-04-15T13:43:16;23.80;49.70
67817;DHT22;54614;47.576;7.524;2023-04-15T13:45:42;23.80;49.70
67817;DHT22;54614;47.576;7.524;2023-04-15T13:48:08;23.80;49.70
67817;DHT22;54614;47.576;7.524;2023-04-15T13:50:34;23.80;49.70
67817;DHT22;54614;47.576;7.524;2023-04-15T13:53:01;23.80;49.70
67817;DHT22;54614;47.576;7.524;2023-04-15T13:55:26;23.90;49.60
67817;DHT22;54614;47.576;7.524;2023-04-15T13:57:53;23.90;49.60
67817;DHT22;54614;47.576;7.524;2023-04-15T14:00:19;23.90;49.60
67817;DHT22;54614;47.576;7.524;2023-04-15T14:02:45;23.90;49.60
67817;DHT22;54614;47.576;7.524;2023-04-15T14:05:11;23.80;49.60
67817;DHT22;54614;47.576;7.524;2023-04-15T14:07:37;23.90;49.80
67817;DHT22;54614;47.576;7.524;2023-04-15T14:10:03;23.80;49.80
67817;DHT22;54614;47.576;7.524;2023-04-15T14:12:29;23.80;49.60
67817;DHT22;54614;47.576;7.524;2023-04-15T14:14:55;23.80;49.70
67817;DHT22;54614;47.576;7.524;2023-04-15T14:17:21;23.80;49.80
67817;DHT22;54614;47.576;7.524;2023-04-15T14:19:47;23.90;49.80
67817;DHT22;54614;47.576;7.524;2023-04-15T14:22:12;23.80;49.90
67817;DHT22;54614;47.576;7.524;2023-04-15T14:24:38;23.80;49.90
67817;DHT22;54614;47.576;7.524;2023-04-15T14:27:04;23.80;49.90
67817;DHT22;54614;47.576;7.524;2023-04-15T14:29:30;23.80;49.80
67817;DHT22;54614;47.576;7.524;2023-04-15T14:31:56;23.90;49.80
67817;DHT22;54614;47.576;7.524;2023-04-15T14:34:23;23.90;49.90
67817;DHT22;54614;47.576;7.524;2023-04-15T14:36:52;23.80;49.90
67817;DHT22;54614;47.576;7.524;2023-04-15T14:39:18;23.90;49.90
67817;DHT22;54614;47.576;7.524;2023-04-15T14:41:45;23.90;49.90
67817;DHT22;54614;47.576;7.524;2023-04-15T14:44:11;23.90;50.00
67817;DHT22;54614;47.576;7.524;2023-04-15T14:46:37;23.90;49.90
67817;DHT22;54614;47.576;7.524;2023-04-15T14:49:05;23.90;49.90
67817;DHT22;54614;47.576;7.524;2023-04-15T14:51:31;23.90;49.70
67817;DHT22;54614;47.576;7.524;2023-04-15T14:53:57;23.90;49.90
67817;DHT22;54614;47.576;7.524;2023-04-15T14:56:23;23.90;50.00
67817;DHT22;54614;47.576;7.524;2023-04-15T14:58:49;23.90;49.90
67817;DHT22;54614;47.576;7.524;2023-04-15T15:01:17;23.90;50.00
67817;DHT22;54614;47.576;7.524;2023-04-15T15:03:43;23.90;50.00
67817;DHT22;54614;47.576;7.524;2023-04-15T15:06:09;23.90;50.00
67817;DHT22;54614;47.576;7.524;2023-04-15T15:08:35;23.80;50.30
67817;DHT22;54614;47.576;7.524;2023-04-15T15:11:01;23.80;50.20
67817;DHT22;54614;47.576;7.524;2023-04-15T15:13:27;23.80;50.10
67817;DHT22;54614;47.576;7.524;2023-04-15T15:15:53;23.90;49.90
67817;DHT22;54614;47.576;7.524;2023-04-15T15:18:19;23.80;49.90
67817;DHT22;54614;47.576;7.524;2023-04-15T15:20:45;24.00;49.50
67817;DHT22;54614;47.576;7.524;2023-04-15T15:23:11;24.00;49.20
67817;DHT22;54614;47.576;7.524;2023-04-15T15:25:37;24.10;49.00
67817;DHT22;54614;47.576;7.524;2023-04-15T15:28:03;24.20;48.80
67817;DHT22;54614;47.576;7.524;2023-04-15T15:30:29;24.10;48.70
67817;DHT22;54614;47.576;7.524;2023-04-15T15:32:55;24.20;48.70
67817;DHT22;54614;47.576;7.524;2023-04-15T15:35:21;24.20;48.60
67817;DHT22;54614;47.576;7.524;2023-04-15T15:37:47;24.20;48.50
67817;DHT22;54614;47.576;7.524;2023-04-15T15:40:13;24.20;48.40
67817;DHT22;54614;47.576;7.524;2023-04-15T15:42:39;24.20;48.40
67817;DHT22;54614;47.576;7.524;2023-04-15T15:45:09;24.20;48.50
67817;DHT22;54614;47.576;7.524;2023-04-15T15:47:35;24.20;48.50
67817;DHT22;54614;47.576;7.524;2023-04-15T15:50:01;24.20;48.30
67817;DHT22;54614;47.576;7.524;2023-04-15T15:52:27;24.30;48.40